sensor_id;sensor_type;location;lat;lon;timestamp;pressure;altitude;pressure_sealevel;temperature;humidity
60244;BME280;46106;51.468;5.814;2023-05-02T00:01:40;101625.97;;;11.37;100.00
60244;BME280;46106;51.468;5.814;2023-05-02T00:04:06;101629.63;;;11.38;100.00
60244;BME280;46106;51.468;5.814;2023-05-02T00:06:32;101641.13;;;11.43;100.00
60244;BME280;46106;51.468;5.814;2023-05-02T00:08:57;101632.94;;;11.56;100.00
60244;BME280;46106;51.468;5.814;2023-05-02T00:11:23;101624.13;;;11.38;100.00
60244;BME280;46106;51.468;5.814;2023-05-02T00:13:49;101647.38;;;11.45;100.00
60244;BME280;46106;51.468;5.814;2023-05-02T00:16:14;101632.13;;;11.41;100.00
60244;BME280;46106;51.468;5.814;2023-05-02T00:18:40;101647.81;;;11.39;100.00
60244;BME280;46106;51.468;5.814;2023-05-02T00:21:06;101649.13;;;11.33;100.00
60244;BME280;46106;51.468;5.814;2023-05-02T00:23:32;101652.19;;;11.29;100.00
60244;BME280;46106;51.468;5.814;2023-05-02T00:25:58;101656.81;;;11.28;100.00
60244;BME280;46106;51.468;5.814;2023-05-02T00:28:23;101657.91;;;11.38;100.00
60244;BME280;46106;51.468;5.814;2023-05-02T00:30:50;101662.03;;;11.31;100.00
60244;BME280;46106;51.468;5.814;2023-05-02T00:33:16;101648.47;;;11.30;100.00
60244;BME280;46106;51.468;5.814;2023-05-02T00:35:42;101664.56;;;11.34;100.00
60244;BME280;46106;51.468;5.814;2023-05-02T00:38:08;101650.44;;;11.40;100.00
60244;BME280;46106;51.468;5.814;2023-05-02T00:40:47;101658.78;;;11.39;100.00
60244;BME280;46106;51.468;5.814;2023-05-02T00:43:13;101653.72;;;11.33;100.00
60244;BME280;46106;51.468;5.814;2023-05-02T00:45:41;101657.00;;;11.25;100.00
60244;BME280;46106;51.468;5.814;2023-05-02T00:48:07;101664.06;;;11.42;100.00
60244;BME280;46106;51.468;5.814;2023-05-02T00:50:36;101666.75;;;11.29;100.00
60244;BME280;46106;51.468;5.814;2023-05-02T00:53:03;101661.84;;;11.34;100.00
60244;BME280;46106;51.468;5.814;2023-05-02T00:55:28;101658.00;;;11.37;100.00
60244;BME280;46106;51.468;5.814;2023-05-02T00:57:55;101669.09;;;11.35;100.00
60244;BME280;46106;51.468;5.814;2023-05-02T01:00:22;101665.78;;;11.30;100.00
60244;BME280;46106;51.468;5.814;2023-05-02T01:02:58;101670.06;;;11.34;100.00
60244;BME280;46106;51.468;5.814;2023-05-02T01:05:42;101672.91;;;11.33;100.00
60244;BME280;46106;51.468;5.814;2023-05-02T01:08:39;101668.00;;;11.38;100.00
60244;BME280;46106;51.468;5.814;2023-05-02T01:11:17;101671.03;;;11.20;100.00
60244;BME280;46106;51.468;5.814;2023-05-02T01:13:52;101668.19;;;11.22;100.00
60244;BME280;46106;51.468;5.814;2023-05-02T01:16:19;101670.41;;;11.30;100.00
60244;BME280;46106;51.468;5.814;2023-05-02T01:18:46;101660.72;;;11.24;100.00
60244;BME280;46106;51.468;5.814;2023-05-02T01:21:12;101665.19;;;11.12;100.00
60244;BME280;46106;51.468;5.814;2023-05-02T01:24:04;101670.25;;;11.18;100.00
60244;BME280;46106;51.468;5.814;2023-05-02T01:26:51;101674.28;;;11.13;100.00
60244;BME280;46106;51.468;5.814;2023-05-02T01:29:19;101666.56;;;11.05;100.00
60244;BME280;46106;51.468;5.814;2023-05-02T01:31:48;101674.78;;;11.05;100.00
60244;BME280;46106;51.468;5.814;2023-05-02T01:34:15;101664.44;;;11.10;100.00
60244;BME280;46106;51.468;5.814;2023-05-02T01:36:44;101677.78;;;11.02;100.00
60244;BME280;46106;51.468;5.814;2023-05-02T01:39:18;101681.19;;;11.06;100.00
60244;BME280;46106;51.468;5.814;2023-05-02T01:41:45;101675.53;;;10.94;100.00
60244;BME280;46106;51.468;5.814;2023-05-02T01:44:14;101679.06;;;10.96;100.00
60244;BME280;46106;51.468;5.814;2023-05-02T01:46:42;101681.78;;;10.96;100.00
60244;BME280;46106;51.468;5.814;2023-05-02T01:49:09;101686.31;;;10.97;100.00
60244;BME280;46106;51.468;5.814;2023-05-02T01:51:39;101678.47;;;10.91;100.00
60244;BME280;46106;51.468;5.814;2023-05-02T01:54:07;101691.31;;;10.91;100.00
60244;BME280;46106;51.468;5.814;2023-05-02T01:56:36;101683.75;;;10.94;100.00
60244;BME280;46106;51.468;5.814;2023-05-02T01:59:05;101690.50;;;10.89;100.00
60244;BME280;46106;51.468;5.814;2023-05-02T02:01:37;101703.91;;;10.93;100.00
60244;BME280;46106;51.468;5.814;2023-05-02T02:04:03;101706.97;;;10.89;100.00
60244;BME280;46106;51.468;5.814;2023-05-02T02:06:31;101706.56;;;10.95;100.00
60244;BME280;46106;51.468;5.814;2023-05-02T02:08:57;101705.16;;;10.75;100.00
60244;BME280;46106;51.468;5.814;2023-05-02T02:11:30;101712.16;;;10.79;100.00
60244;BME280;46106;51.468;5.814;2023-05-02T02:14:03;101712.31;;;10.77;100.00
60244;BME280;46106;51.468;5.814;2023-05-02T02:16:32;101720.72;;;10.74;100.00
60244;BME280;46106;51.468;5.814;2023-05-02T02:19:02;101714.03;;;10.78;100.00
60244;BME280;46106;51.468;5.814;2023-05-02T02:21:30;101720.81;;;10.73;100.00
60244;BME280;46106;51.468;5.814;2023-05-02T02:23:58;101727.16;;;10.73;100.00
60244;BME280;46106;51.468;5.814;2023-05-02T02:26:26;101727.16;;;10.73;100.00
60244;BME280;46106;51.468;5.814;2023-05-02T02:28:51;101721.47;;;10.76;100.00
60244;BME280;46106;51.468;5.814;2023-05-02T02:31:17;101720.63;;;10.76;100.00
60244;BME280;46106;51.468;5.814;2023-05-02T02:33:42;101726.50;;;10.70;100.00
60244;BME280;46106;51.468;5.814;2023-05-02T02:36:20;101718.38;;;10.68;100.00
60244;BME280;46106;51.468;5.814;2023-05-02T02:45:29;101728.09;;;10.87;100.00
60244;BME280;46106;51.468;5.814;2023-05-02T02:51:13;101733.88;;;10.82;100.00
60244;BME280;46106;51.468;5.814;2023-05-02T02:56:44;101736.63;;;10.82;100.00
60244;BME280;46106;51.468;5.814;2023-05-02T02:59:27;101728.13;;;10.72;100.00
60244;BME280;46106;51.468;5.814;2023-05-02T03:02:00;101743.41;;;10.76;100.00
60244;BME280;46106;51.468;5.814;2023-05-02T03:04:30;101738.22;;;10.72;100.00
60244;BME280;46106;51.468;5.814;2023-05-02T03:06:56;101736.78;;;10.66;100.00
60244;BME280;46106;51.468;5.814;2023-05-02T03:09:21;101753.59;;;10.74;100.00
60244;BME280;46106;51.468;5.814;2023-05-02T03:11:47;101744.38;;;10.75;100.00
60244;BME280;46106;51.468;5.814;2023-05-02T03:14:12;101753.22;;;10.66;100.00
60244;BME280;46106;51.468;5.814;2023-05-02T03:16:39;101756.53;;;10.71;100.00
60244;BME280;46106;51.468;5.814;2023-05-02T03:19:05;101764.84;;;10.70;100.00
60244;BME280;46106;51.468;5.814;2023-05-02T03:21:32;101767.69;;;10.68;100.00
60244;BME280;46106;51.468;5.814;2023-05-02T03:23:58;101760.44;;;10.67;100.00
60244;BME280;46106;51.468;5.814;2023-05-02T03:26:24;101766.00;;;10.65;100.00
60244;BME280;46106;51.468;5.814;2023-05-02T03:28:50;101758.25;;;10.72;100.00
60244;BME280;46106;51.468;5.814;2023-05-02T03:31:15;101764.63;;;10.73;100.00
60244;BME280;46106;51.468;5.814;2023-05-02T03:33:41;101777.66;;;10.69;100.00
60244;BME280;46106;51.468;5.814;2023-05-02T03:36:07;101778.72;;;10.66;100.00
60244;BME280;46106;51.468;5.814;2023-05-02T03:38:32;101788.72;;;10.68;100.00
60244;BME280;46106;51.468;5.814;2023-05-02T03:40:58;101778.06;;;10.63;100.00
60244;BME280;46106;51.468;5.814;2023-05-02T03:43:24;101778.13;;;10.76;100.00
60244;BME280;46106;51.468;5.814;2023-05-02T03:45:49;101786.47;;;10.74;100.00
60244;BME280;46106;51.468;5.814;2023-05-02T03:48:15;101778.53;;;10.70;100.00
60244;BME280;46106;51.468;5.814;2023-05-02T03:50:40;101786.56;;;10.73;100.00
60244;BME280;46106;51.468;5.814;2023-05-02T03:53:06;101787.63;;;10.70;100.00
60244;BME280;46106;51.468;5.814;2023-05-02T03:55:38;101784.50;;;10.62;100.00
60244;BME280;46106;51.468;5.814;2023-05-02T03:58:03;101788.09;;;10.62;100.00
60244;BME280;46106;51.468;5.814;2023-05-02T04:00:30;101782.53;;;10.64;100.00
60244;BME280;46106;51.468;5.814;2023-05-02T04:02:55;101785.88;;;10.69;100.00
60244;BME280;46106;51.468;5.814;2023-05-02T04:05:21;101789.88;;;10.63;100.00
60244;BME280;46106;51.468;5.814;2023-05-02T04:07:46;101801.22;;;10.72;100.00
60244;BME280;46106;51.468;5.814;2023-05-02T04:10:12;101803.56;;;10.63;100.00
60244;BME280;46106;51.468;5.814;2023-05-02T04:12:41;101810.25;;;10.59;100.00
60244;BME280;46106;51.468;5.814;2023-05-02T04:15:08;101809.91;;;10.64;100.00
60244;BME280;46106;51.468;5.814;2023-05-02T04:17:34;101810.72;;;10.66;100.00
60244;BME280;46106;51.468;5.814;2023-05-02T04:19:59;101813.84;;;10.60;100.00
60244;BME280;46106;51.468;5.814;2023-05-02T04:22:24;101818.22;;;10.62;100.00
60244;BME280;46106;51.468;5.814;2023-05-02T04:24:50;101822.25;;;10.42;100.00
60244;BME280;46106;51.468;5.814;2023-05-02T04:27:15;101833.88;;;10.46;100.00
60244;BME280;46106;51.468;5.814;2023-05-02T04:29:41;101832.41;;;10.40;100.00
60244;BME280;46106;51.468;5.814;2023-05-02T04:32:06;101836.94;;;10.41;100.00
60244;BME280;46106;51.468;5.814;2023-05-02T04:34:32;101848.47;;;10.61;100.00
60244;BME280;46106;51.468;5.814;2023-05-02T04:37:03;101847.38;;;10.49;100.00
60244;BME280;46106;51.468;5.814;2023-05-02T04:39:28;101850.81;;;10.38;100.00
60244;BME280;46106;51.468;5.814;2023-05-02T04:41:54;101849.53;;;10.44;100.00
60244;BME280;46106;51.468;5.814;2023-05-02T04:44:19;101845.91;;;10.43;100.00
60244;BME280;46106;51.468;5.814;2023-05-02T04:46:45;101858.50;;;10.46;100.00
60244;BME280;46106;51.468;5.814;2023-05-02T04:49:10;101860.84;;;10.38;100.00
60244;BME280;46106;51.468;5.814;2023-05-02T04:51:38;101856.97;;;10.42;100.00
60244;BME280;46106;51.468;5.814;2023-05-02T04:54:04;101870.94;;;10.37;100.00
60244;BME280;46106;51.468;5.814;2023-05-02T04:56:29;101875.44;;;10.38;100.00
60244;BME280;46106;51.468;5.814;2023-05-02T04:58:55;101873.09;;;10.46;100.00
60244;BME280;46106;51.468;5.814;2023-05-02T05:01:20;101880.91;;;10.38;100.00
60244;BME280;46106;51.468;5.814;2023-05-02T05:03:46;101887.94;;;10.42;100.00
60244;BME280;46106;51.468;5.814;2023-05-02T05:06:11;101900.88;;;10.24;100.00
60244;BME280;46106;51.468;5.814;2023-05-02T05:08:37;101909.59;;;10.31;100.00
60244;BME280;46106;51.468;5.814;2023-05-02T05:11:02;101915.91;;;10.33;100.00
60244;BME280;46106;51.468;5.814;2023-05-02T05:13:29;101917.56;;;10.36;100.00
60244;BME280;46106;51.468;5.814;2023-05-02T05:15:54;101917.22;;;10.56;100.00
60244;BME280;46106;51.468;5.814;2023-05-02T05:18:20;101929.44;;;10.51;100.00
60244;BME280;46106;51.468;5.814;2023-05-02T05:20:45;101932.25;;;10.35;100.00
60244;BME280;46106;51.468;5.814;2023-05-02T05:23:11;101929.59;;;10.33;100.00
60244;BME280;46106;51.468;5.814;2023-05-02T05:25:37;101930.88;;;10.42;100.00
60244;BME280;46106;51.468;5.814;2023-05-02T05:28:04;101932.97;;;10.67;100.00
60244;BME280;46106;51.468;5.814;2023-05-02T05:30:30;101941.22;;;10.81;100.00
60244;BME280;46106;51.468;5.814;2023-05-02T05:32:56;101942.81;;;10.85;100.00
60244;BME280;46106;51.468;5.814;2023-05-02T05:35:23;101948.16;;;10.73;100.00
60244;BME280;46106;51.468;5.814;2023-05-02T05:37:49;101950.13;;;10.85;100.00
60244;BME280;46106;51.468;5.814;2023-05-02T05:40:15;101962.97;;;10.99;100.00
60244;BME280;46106;51.468;5.814;2023-05-02T05:42:41;101955.91;;;11.09;100.00
60244;BME280;46106;51.468;5.814;2023-05-02T05:45:09;101957.44;;;10.70;100.00
60244;BME280;46106;51.468;5.814;2023-05-02T05:47:36;101957.25;;;10.73;100.00
60244;BME280;46106;51.468;5.814;2023-05-02T05:50:02;101967.34;;;10.73;100.00
60244;BME280;46106;51.468;5.814;2023-05-02T05:52:27;101962.22;;;10.66;100.00
60244;BME280;46106;51.468;5.814;2023-05-02T05:54:53;101967.38;;;10.87;100.00
60244;BME280;46106;51.468;5.814;2023-05-02T05:57:21;101978.72;;;10.81;100.00
60244;BME280;46106;51.468;5.814;2023-05-02T05:59:48;101974.28;;;10.78;100.00
60244;BME280;46106;51.468;5.814;2023-05-02T06:02:13;101979.88;;;10.91;100.00
60244;BME280;46106;51.468;5.814;2023-05-02T06:04:39;101978.59;;;10.82;100.00
60244;BME280;46106;51.468;5.814;2023-05-02T06:07:05;101988.47;;;10.85;100.00
60244;BME280;46106;51.468;5.814;2023-05-02T06:09:31;101984.94;;;10.69;100.00
60244;BME280;46106;51.468;5.814;2023-05-02T06:11:56;101990.69;;;10.64;100.00
60244;BME280;46106;51.468;5.814;2023-05-02T06:14:21;101991.53;;;10.50;100.00
60244;BME280;46106;51.468;5.814;2023-05-02T06:16:47;102001.72;;;10.62;100.00
60244;BME280;46106;51.468;5.814;2023-05-02T06:19:12;101999.25;;;10.88;100.00
60244;BME280;46106;51.468;5.814;2023-05-02T06:21:39;102002.31;;;11.12;100.00
60244;BME280;46106;51.468;5.814;2023-05-02T06:24:04;102006.16;;;11.24;100.00
60244;BME280;46106;51.468;5.814;2023-05-02T06:26:30;102003.97;;;11.29;100.00
60244;BME280;46106;51.468;5.814;2023-05-02T06:28:55;102014.47;;;11.51;100.00
60244;BME280;46106;51.468;5.814;2023-05-02T06:31:21;102010.81;;;11.80;100.00
60244;BME280;46106;51.468;5.814;2023-05-02T06:33:47;102019.53;;;11.72;100.00
60244;BME280;46106;51.468;5.814;2023-05-02T06:36:12;102023.00;;;11.32;100.00
60244;BME280;46106;51.468;5.814;2023-05-02T06:38:38;102030.59;;;11.13;100.00
60244;BME280;46106;51.468;5.814;2023-05-02T06:41:03;102027.66;;;11.01;100.00
60244;BME280;46106;51.468;5.814;2023-05-02T06:43:28;102035.72;;;11.48;100.00
60244;BME280;46106;51.468;5.814;2023-05-02T06:45:54;102025.19;;;12.12;100.00
60244;BME280;46106;51.468;5.814;2023-05-02T06:48:21;102037.47;;;12.74;100.00
60244;BME280;46106;51.468;5.814;2023-05-02T06:50:47;102042.88;;;12.21;100.00
60244;BME280;46106;51.468;5.814;2023-05-02T06:53:13;102052.25;;;11.89;100.00
60244;BME280;46106;51.468;5.814;2023-05-02T06:55:39;102055.59;;;11.22;100.00
60244;BME280;46106;51.468;5.814;2023-05-02T06:58:05;102056.88;;;11.17;100.00
60244;BME280;46106;51.468;5.814;2023-05-02T07:00:30;102050.00;;;11.24;100.00
60244;BME280;46106;51.468;5.814;2023-05-02T07:02:55;102065.41;;;11.27;100.00
60244;BME280;46106;51.468;5.814;2023-05-02T07:05:21;102062.25;;;11.18;100.00
60244;BME280;46106;51.468;5.814;2023-05-02T07:07:46;102061.84;;;11.25;100.00
60244;BME280;46106;51.468;5.814;2023-05-02T07:10:12;102057.66;;;11.33;100.00
60244;BME280;46106;51.468;5.814;2023-05-02T07:12:38;102070.97;;;11.39;100.00
60244;BME280;46106;51.468;5.814;2023-05-02T07:15:10;102087.94;;;11.01;100.00
60244;BME280;46106;51.468;5.814;2023-05-02T07:17:38;102087.25;;;10.98;100.00
60244;BME280;46106;51.468;5.814;2023-05-02T07:20:04;102095.06;;;10.90;100.00
60244;BME280;46106;51.468;5.814;2023-05-02T07:22:29;102107.03;;;11.03;100.00
60244;BME280;46106;51.468;5.814;2023-05-02T07:24:56;102105.72;;;10.64;100.00
60244;BME280;46106;51.468;5.814;2023-05-02T07:27:22;102114.66;;;10.52;100.00
60244;BME280;46106;51.468;5.814;2023-05-02T07:29:48;102129.75;;;10.75;100.00
60244;BME280;46106;51.468;5.814;2023-05-02T07:32:13;102135.41;;;10.56;100.00
60244;BME280;46106;51.468;5.814;2023-05-02T07:34:39;102131.09;;;10.68;100.00
60244;BME280;46106;51.468;5.814;2023-05-02T07:37:04;102133.34;;;10.75;100.00
60244;BME280;46106;51.468;5.814;2023-05-02T07:39:31;102136.63;;;10.82;100.00
60244;BME280;46106;51.468;5.814;2023-05-02T07:41:57;102138.16;;;10.56;100.00
60244;BME280;46106;51.468;5.814;2023-05-02T07:44:23;102139.31;;;10.68;100.00
60244;BME280;46106;51.468;5.814;2023-05-02T07:46:48;102141.38;;;10.94;100.00
60244;BME280;46106;51.468;5.814;2023-05-02T07:49:14;102133.34;;;10.75;100.00
60244;BME280;46106;51.468;5.814;2023-05-02T07:51:39;102128.72;;;10.92;100.00
60244;BME280;46106;51.468;5.814;2023-05-02T07:54:18;102140.47;;;11.24;100.00
60244;BME280;46106;51.468;5.814;2023-05-02T07:56:44;102138.59;;;11.10;100.00
60244;BME280;46106;51.468;5.814;2023-05-02T07:59:10;102140.25;;;11.13;100.00
60244;BME280;46106;51.468;5.814;2023-05-02T08:01:36;102145.44;;;11.62;100.00
60244;BME280;46106;51.468;5.814;2023-05-02T08:04:02;102144.34;;;11.50;100.00
60244;BME280;46106;51.468;5.814;2023-05-02T08:06:29;102148.94;;;12.09;100.00
60244;BME280;46106;51.468;5.814;2023-05-02T08:08:55;102153.13;;;11.86;100.00
60244;BME280;46106;51.468;5.814;2023-05-02T08:11:21;102147.63;;;12.00;100.00
60244;BME280;46106;51.468;5.814;2023-05-02T08:13:52;102146.47;;;12.19;100.00
60244;BME280;46106;51.468;5.814;2023-05-02T08:16:17;102155.69;;;12.59;100.00
60244;BME280;46106;51.468;5.814;2023-05-02T08:18:43;102165.50;;;12.63;100.00
60244;BME280;46106;51.468;5.814;2023-05-02T08:21:09;102163.50;;;12.65;100.00
60244;BME280;46106;51.468;5.814;2023-05-02T08:23:34;102168.94;;;12.53;100.00
60244;BME280;46106;51.468;5.814;2023-05-02T08:26:03;102164.28;;;12.40;100.00
60244;BME280;46106;51.468;5.814;2023-05-02T08:28:28;102168.78;;;12.41;100.00
60244;BME280;46106;51.468;5.814;2023-05-02T08:30:55;102167.63;;;12.73;100.00
60244;BME280;46106;51.468;5.814;2023-05-02T08:33:20;102166.94;;;12.69;100.00
60244;BME280;46106;51.468;5.814;2023-05-02T08:35:47;102175.75;;;12.32;100.00
60244;BME280;46106;51.468;5.814;2023-05-02T08:38:13;102181.88;;;12.09;100.00
60244;BME280;46106;51.468;5.814;2023-05-02T08:40:38;102179.75;;;11.69;100.00
60244;BME280;46106;51.468;5.814;2023-05-02T08:43:04;102195.09;;;12.02;100.00
60244;BME280;46106;51.468;5.814;2023-05-02T08:45:36;102184.53;;;12.10;100.00
60244;BME280;46106;51.468;5.814;2023-05-02T08:48:08;102193.53;;;11.98;100.00
60244;BME280;46106;51.468;5.814;2023-05-02T08:50:44;102202.53;;;12.00;100.00
60244;BME280;46106;51.468;5.814;2023-05-02T08:53:12;102199.00;;;11.98;100.00
60244;BME280;46106;51.468;5.814;2023-05-02T08:55:39;102203.72;;;12.10;100.00
60244;BME280;46106;51.468;5.814;2023-05-02T08:58:09;102202.03;;;12.51;98.06
60244;BME280;46106;51.468;5.814;2023-05-02T09:00:39;102204.16;;;12.60;100.00
60244;BME280;46106;51.468;5.814;2023-05-02T09:03:31;102208.28;;;13.22;99.39
60244;BME280;46106;51.468;5.814;2023-05-02T09:08:28;102206.84;;;13.56;85.75
60244;BME280;46106;51.468;5.814;2023-05-02T09:10:53;102213.06;;;13.33;86.32
60244;BME280;46106;51.468;5.814;2023-05-02T09:13:37;102228.38;;;12.82;79.06
60244;BME280;46106;51.468;5.814;2023-05-02T09:18:32;102220.66;;;13.02;71.07
60244;BME280;46106;51.468;5.814;2023-05-02T09:20:58;102222.03;;;13.22;75.72
60244;BME280;46106;51.468;5.814;2023-05-02T09:23:32;102217.19;;;13.26;83.09
60244;BME280;46106;51.468;5.814;2023-05-02T09:25:59;102232.22;;;13.34;74.75
60244;BME280;46106;51.468;5.814;2023-05-02T09:28:45;102239.13;;;13.54;68.74
60244;BME280;46106;51.468;5.814;2023-05-02T09:31:19;102245.28;;;13.31;66.32
60244;BME280;46106;51.468;5.814;2023-05-02T09:33:45;102249.25;;;12.85;73.18
60244;BME280;46106;51.468;5.814;2023-05-02T09:36:13;102242.91;;;13.39;68.77
60244;BME280;46106;51.468;5.814;2023-05-02T09:38:40;102253.91;;;12.70;71.81
60244;BME280;46106;51.468;5.814;2023-05-02T09:41:05;102254.69;;;13.14;75.15
60244;BME280;46106;51.468;5.814;2023-05-02T09:43:31;102254.91;;;12.96;72.23
60244;BME280;46106;51.468;5.814;2023-05-02T09:46:01;102262.72;;;13.17;70.78
60244;BME280;46106;51.468;5.814;2023-05-02T09:48:28;102262.28;;;12.96;71.67
60244;BME280;46106;51.468;5.814;2023-05-02T09:50:55;102261.91;;;13.15;68.13
60244;BME280;46106;51.468;5.814;2023-05-02T09:53:21;102267.81;;;12.81;71.50
60244;BME280;46106;51.468;5.814;2023-05-02T09:55:48;102274.50;;;13.46;68.20
60244;BME280;46106;51.468;5.814;2023-05-02T09:58:23;102269.72;;;13.08;70.92
60244;BME280;46106;51.468;5.814;2023-05-02T10:00:50;102273.28;;;13.77;69.41
60244;BME280;46106;51.468;5.814;2023-05-02T10:03:18;102279.69;;;13.51;68.44
60244;BME280;46106;51.468;5.814;2023-05-02T10:05:45;102279.50;;;13.27;67.55
60244;BME280;46106;51.468;5.814;2023-05-02T10:08:15;102280.00;;;13.46;67.74
60244;BME280;46106;51.468;5.814;2023-05-02T10:10:55;102276.66;;;13.68;67.57
60244;BME280;46106;51.468;5.814;2023-05-02T10:13:22;102272.00;;;13.56;67.32
60244;BME280;46106;51.468;5.814;2023-05-02T10:15:57;102266.59;;;13.41;67.28
60244;BME280;46106;51.468;5.814;2023-05-02T10:21:06;102275.38;;;13.87;62.83
60244;BME280;46106;51.468;5.814;2023-05-02T10:23:40;102286.31;;;14.40;58.38
60244;BME280;46106;51.468;5.814;2023-05-02T10:26:05;102279.38;;;14.97;57.92
60244;BME280;46106;51.468;5.814;2023-05-02T10:28:31;102279.25;;;15.11;55.35
60244;BME280;46106;51.468;5.814;2023-05-02T10:30:59;102278.47;;;14.72;58.67
60244;BME280;46106;51.468;5.814;2023-05-02T10:33:26;102280.00;;;13.86;64.40
60244;BME280;46106;51.468;5.814;2023-05-02T10:35:52;102274.94;;;13.80;64.41
60244;BME280;46106;51.468;5.814;2023-05-02T10:38:20;102279.38;;;13.95;65.09
60244;BME280;46106;51.468;5.814;2023-05-02T10:40:52;102290.84;;;15.03;59.21
60244;BME280;46106;51.468;5.814;2023-05-02T10:43:24;102288.69;;;14.96;61.58
60244;BME280;46106;51.468;5.814;2023-05-02T10:45:52;102291.50;;;14.70;65.18
60244;BME280;46106;51.468;5.814;2023-05-02T10:48:25;102292.50;;;14.43;65.98
60244;BME280;46106;51.468;5.814;2023-05-02T10:51:03;102277.06;;;14.15;68.70
60244;BME280;46106;51.468;5.814;2023-05-02T10:53:32;102293.19;;;13.41;77.00
60244;BME280;46106;51.468;5.814;2023-05-02T10:56:11;102293.03;;;14.36;73.99
60244;BME280;46106;51.468;5.814;2023-05-02T10:58:37;102279.78;;;13.49;70.09
60244;BME280;46106;51.468;5.814;2023-05-02T11:06:25;102276.16;;;14.40;59.05
60244;BME280;46106;51.468;5.814;2023-05-02T11:08:52;102285.41;;;15.87;52.51
60244;BME280;46106;51.468;5.814;2023-05-02T11:11:47;102277.72;;;14.06;58.54
60244;BME280;46106;51.468;5.814;2023-05-02T11:24:44;102295.09;;;13.93;58.04
60244;BME280;46106;51.468;5.814;2023-05-02T11:35:17;102298.69;;;15.58;52.15
60244;BME280;46106;51.468;5.814;2023-05-02T11:37:55;102297.75;;;15.22;52.55
60244;BME280;46106;51.468;5.814;2023-05-02T11:40:21;102302.50;;;15.44;52.10
60244;BME280;46106;51.468;5.814;2023-05-02T11:42:47;102290.59;;;14.57;57.22
60244;BME280;46106;51.468;5.814;2023-05-02T11:45:12;102303.63;;;14.42;58.46
60244;BME280;46106;51.468;5.814;2023-05-02T11:47:39;102295.78;;;14.23;58.05
60244;BME280;46106;51.468;5.814;2023-05-02T11:50:05;102283.19;;;15.44;59.23
60244;BME280;46106;51.468;5.814;2023-05-02T11:52:43;102292.53;;;14.93;58.31
60244;BME280;46106;51.468;5.814;2023-05-02T11:55:13;102297.09;;;14.81;53.53
60244;BME280;46106;51.468;5.814;2023-05-02T11:57:39;102285.69;;;14.99;54.80
60244;BME280;46106;51.468;5.814;2023-05-02T12:00:05;102309.91;;;14.31;55.23
60244;BME280;46106;51.468;5.814;2023-05-02T12:05:09;102298.31;;;14.51;57.33
60244;BME280;46106;51.468;5.814;2023-05-02T12:07:41;102291.69;;;14.54;58.69
60244;BME280;46106;51.468;5.814;2023-05-02T12:10:07;102312.03;;;15.03;55.77
60244;BME280;46106;51.468;5.814;2023-05-02T12:12:34;102315.09;;;14.74;55.27
60244;BME280;46106;51.468;5.814;2023-05-02T12:15:10;102304.38;;;14.57;55.67
60244;BME280;46106;51.468;5.814;2023-05-02T12:17:39;102307.59;;;14.76;55.24
60244;BME280;46106;51.468;5.814;2023-05-02T12:20:07;102310.13;;;15.16;52.29
60244;BME280;46106;51.468;5.814;2023-05-02T12:22:33;102313.94;;;15.02;57.40
60244;BME280;46106;51.468;5.814;2023-05-02T12:24:59;102316.28;;;14.83;54.49
60244;BME280;46106;51.468;5.814;2023-05-02T12:27:25;102330.28;;;14.93;51.64
60244;BME280;46106;51.468;5.814;2023-05-02T12:29:52;102325.06;;;15.01;52.14
60244;BME280;46106;51.468;5.814;2023-05-02T12:32:32;102325.16;;;15.36;54.46
60244;BME280;46106;51.468;5.814;2023-05-02T12:34:59;102328.53;;;15.53;51.10
60244;BME280;46106;51.468;5.814;2023-05-02T12:37:25;102322.28;;;15.62;53.20
60244;BME280;46106;51.468;5.814;2023-05-02T12:39:52;102326.88;;;15.74;50.40
60244;BME280;46106;51.468;5.814;2023-05-02T12:42:20;102328.69;;;15.62;53.20
60244;BME280;46106;51.468;5.814;2023-05-02T12:44:47;102328.19;;;14.70;54.72
60244;BME280;46106;51.468;5.814;2023-05-02T12:47:14;102327.88;;;14.24;53.95
60244;BME280;46106;51.468;5.814;2023-05-02T12:49:50;102340.47;;;14.66;54.38
60244;BME280;46106;51.468;5.814;2023-05-02T12:52:20;102334.38;;;14.48;54.29
60244;BME280;46106;51.468;5.814;2023-05-02T12:54:46;102344.75;;;14.45;54.35
60244;BME280;46106;51.468;5.814;2023-05-02T12:57:25;102348.47;;;14.44;49.33
60244;BME280;46106;51.468;5.814;2023-05-02T12:59:53;102356.41;;;14.87;49.06
60244;BME280;46106;51.468;5.814;2023-05-02T13:02:20;102351.34;;;14.55;48.64
60244;BME280;46106;51.468;5.814;2023-05-02T13:04:45;102346.97;;;14.65;48.32
60244;BME280;46106;51.468;5.814;2023-05-02T13:07:11;102357.41;;;14.47;51.19
60244;BME280;46106;51.468;5.814;2023-05-02T13:09:36;102361.06;;;14.48;50.68
60244;BME280;46106;51.468;5.814;2023-05-02T13:12:02;102358.81;;;14.14;51.05
60244;BME280;46106;51.468;5.814;2023-05-02T13:14:28;102347.25;;;14.09;53.58
60244;BME280;46106;51.468;5.814;2023-05-02T13:16:54;102356.13;;;14.66;52.54
60244;BME280;46106;51.468;5.814;2023-05-02T13:19:20;102353.44;;;14.51;49.21
60244;BME280;46106;51.468;5.814;2023-05-02T13:21:46;102352.53;;;14.51;51.43
60244;BME280;46106;51.468;5.814;2023-05-02T13:24:12;102340.22;;;14.57;51.74
60244;BME280;46106;51.468;5.814;2023-05-02T13:26:37;102342.41;;;14.90;51.79
60244;BME280;46106;51.468;5.814;2023-05-02T13:29:03;102350.25;;;14.70;50.51
60244;BME280;46106;51.468;5.814;2023-05-02T13:31:28;102350.38;;;14.69;50.46
60244;BME280;46106;51.468;5.814;2023-05-02T13:33:54;102329.88;;;14.60;48.38